createdAt,value
2023-04-10T00:00:01.014Z,6.68
2023-04-10T00:05:08.955Z,6.69
2023-04-10T00:10:14.855Z,6.60
2023-04-10T00:15:20.687Z,6.49
2023-04-10T00:20:26.749Z,6.36
2023-04-10T00:25:32.354Z,6.28
2023-04-10T00:30:37.949Z,6.23
2023-04-10T00:35:43.848Z,6.20
2023-04-10T00:40:49.365Z,6.18
2023-04-10T00:45:55.019Z,6.14
2023-04-10T00:51:01.161Z,6.09
2023-04-10T00:56:09.042Z,6.00
2023-04-10T01:01:14.887Z,5.91
2023-04-10T01:06:35.881Z,5.88
2023-04-10T01:11:54.296Z,5.89
2023-04-10T01:17:07.884Z,5.90
2023-04-10T01:22:17.769Z,5.97
2023-04-10T01:27:45.110Z,6.00
2023-04-10T01:32:53.780Z,5.96
2023-04-10T01:38:02.411Z,5.91
2023-04-10T01:43:12.147Z,5.87
2023-04-10T01:48:18.450Z,5.84
2023-04-10T01:53:25.246Z,5.88
2023-04-10T01:58:32.035Z,5.91
2023-04-10T02:03:38.030Z,5.96
2023-04-10T02:08:55.835Z,5.94
2023-04-10T02:14:06.206Z,5.88
2023-04-10T02:19:13.116Z,5.75
2023-04-10T02:24:19.826Z,5.65
2023-04-10T02:29:25.550Z,5.62
2023-04-10T02:34:31.206Z,5.60
2023-04-10T02:39:37.157Z,5.59
2023-04-10T02:44:43.029Z,5.64
2023-04-10T02:49:48.688Z,5.58
2023-04-10T02:54:54.669Z,5.49
2023-04-10T03:00:00.430Z,5.43
2023-04-10T03:05:08.398Z,5.40
2023-04-10T03:10:14.225Z,5.36
2023-04-10T03:15:20.298Z,5.30
2023-04-10T03:20:26.153Z,5.14
2023-04-10T03:25:33.969Z,5.04
2023-04-10T03:30:40.024Z,5.01
2023-04-10T03:35:47.036Z,4.95
2023-04-10T03:40:53.475Z,4.89
2023-04-10T03:45:59.391Z,4.86
2023-04-10T03:51:06.755Z,4.79
2023-04-10T03:56:12.453Z,4.70
2023-04-10T04:01:18.226Z,4.69
2023-04-10T04:06:24.089Z,4.72
2023-04-10T04:11:30.971Z,4.74
2023-04-10T04:16:36.837Z,4.74
2023-04-10T04:21:42.490Z,4.68
2023-04-10T04:26:48.499Z,4.60
2023-04-10T04:31:54.452Z,4.59
2023-04-10T04:37:00.830Z,4.57
2023-04-10T04:42:07.276Z,4.54
2023-04-10T04:47:13.016Z,4.59
2023-04-10T04:52:18.880Z,4.62
2023-04-10T04:57:24.649Z,4.68
2023-04-10T05:02:30.690Z,4.73
2023-04-10T05:07:36.764Z,4.71
2023-04-10T05:12:42.833Z,4.69
2023-04-10T05:17:50.642Z,4.67
2023-04-10T05:22:57.819Z,4.69
2023-04-10T05:28:03.437Z,4.72
2023-04-10T05:33:09.347Z,4.74
2023-04-10T05:38:14.973Z,4.79
2023-04-10T05:43:21.491Z,4.80
2023-04-10T05:48:28.408Z,4.91
2023-04-10T05:53:34.238Z,5.05
2023-04-10T05:58:39.930Z,5.14
2023-04-10T06:03:45.715Z,5.20
2023-04-10T06:08:51.994Z,5.23
2023-04-10T06:13:58.413Z,5.27
2023-04-10T06:19:04.214Z,5.39
2023-04-10T06:24:11.667Z,5.47
2023-04-10T06:29:18.562Z,5.59
2023-04-10T06:34:24.498Z,5.77
2023-04-10T06:39:30.282Z,5.98
2023-04-10T06:44:36.085Z,6.14
2023-04-10T06:49:41.852Z,6.31
2023-04-10T06:54:47.693Z,6.50
2023-04-10T06:59:53.340Z,6.76
2023-04-10T07:04:59.186Z,7.04
2023-04-10T07:10:06.026Z,7.28
2023-04-10T07:15:12.959Z,7.50
2023-04-10T07:20:18.900Z,7.78
2023-04-10T07:25:24.675Z,8.10
2023-04-10T07:30:30.622Z,8.49
2023-04-10T07:35:36.582Z,8.84
2023-04-10T07:40:42.342Z,9.16
2023-04-10T07:45:48.981Z,9.55
2023-04-10T07:50:55.694Z,9.70
2023-04-10T07:56:01.471Z,9.86
2023-04-10T08:01:08.313Z,10.11
2023-04-10T08:06:14.723Z,10.42
2023-04-10T08:11:28.804Z,10.69
2023-04-10T08:16:38.079Z,10.94
2023-04-10T08:21:44.032Z,11.29
2023-04-10T08:26:50.160Z,11.71
2023-04-10T08:31:56.093Z,12.09
2023-04-10T08:37:05.642Z,12.37
2023-04-10T08:42:11.367Z,12.78
2023-04-10T08:47:22.290Z,13.21
2023-04-10T08:52:31.287Z,13.59
2023-04-10T08:57:42.826Z,13.79
2023-04-10T09:02:54.845Z,13.68
2023-04-10T09:08:03.584Z,13.46
2023-04-10T09:13:09.477Z,13.26
2023-04-10T09:18:15.293Z,13.28
2023-04-10T09:23:24.094Z,13.22
2023-04-10T09:28:30.467Z,13.32
2023-04-10T09:33:36.310Z,13.50
2023-04-10T09:38:42.153Z,13.51
2023-04-10T09:43:48.310Z,13.72
2023-04-10T09:49:00.999Z,13.90
2023-04-10T09:54:07.103Z,13.97
2023-04-10T09:59:16.242Z,13.98
2023-04-10T10:04:22.285Z,14.13
2023-04-10T10:09:29.399Z,14.18
2023-04-10T10:14:38.346Z,14.30
2023-04-10T10:19:57.255Z,14.45
2023-04-10T10:25:04.602Z,14.55
2023-04-10T10:30:25.673Z,14.67
2023-04-10T10:35:36.208Z,14.75
2023-04-10T10:40:51.968Z,14.91
2023-04-10T10:46:04.383Z,15.37
2023-04-10T10:51:11.420Z,15.67
2023-04-10T10:56:38.581Z,15.49
2023-04-10T11:02:18.591Z,15.33
2023-04-10T11:08:02.516Z,15.02
2023-04-10T11:13:20.773Z,14.72
2023-04-10T11:19:14.211Z,14.65
2023-04-10T11:24:22.161Z,14.48
2023-04-10T11:29:37.209Z,14.49
2023-04-10T11:34:47.438Z,14.89
2023-04-10T11:40:07.408Z,15.16
2023-04-10T11:45:30.404Z,15.31
2023-04-10T11:50:36.359Z,15.35
2023-04-10T11:55:42.231Z,15.48
2023-04-10T12:00:55.733Z,15.79
2023-04-10T12:06:01.949Z,15.90
2023-04-10T12:11:10.022Z,16.02
2023-04-10T12:16:16.502Z,16.18
2023-04-10T12:21:22.953Z,16.23
2023-04-10T12:26:28.649Z,16.24
2023-04-10T12:31:37.199Z,16.39
2023-04-10T12:36:43.120Z,16.50
2023-04-10T12:41:48.957Z,16.56
2023-04-10T12:47:02.223Z,16.64
2023-04-10T12:52:07.873Z,16.74
2023-04-10T12:57:28.368Z,16.82
2023-04-10T13:02:34.505Z,17.05
2023-04-10T13:07:41.256Z,17.13
2023-04-10T13:12:48.379Z,17.08
2023-04-10T13:17:54.161Z,17.03
2023-04-10T13:22:59.918Z,17.11
2023-04-10T13:28:09.689Z,17.08
2023-04-10T13:33:15.643Z,17.05
2023-04-10T13:38:21.496Z,17.07
2023-04-10T13:43:27.280Z,17.06
2023-04-10T13:48:40.033Z,17.07
2023-04-10T13:53:46.536Z,17.04
2023-04-10T13:58:52.577Z,16.98
2023-04-10T14:03:58.588Z,16.70
2023-04-10T14:09:04.442Z,16.63
2023-04-10T14:14:10.325Z,16.77
2023-04-10T14:19:15.969Z,16.82
2023-04-10T14:24:21.845Z,16.84
2023-04-10T14:29:37.460Z,16.87
2023-04-10T14:34:46.571Z,16.83
2023-04-10T14:39:52.503Z,16.81
2023-04-10T14:44:58.384Z,16.83
2023-04-10T14:50:04.607Z,16.83
2023-04-10T14:55:12.049Z,16.83
2023-04-10T15:00:18.940Z,16.83
2023-04-10T15:05:25.677Z,16.82
2023-04-10T15:10:32.644Z,16.83
2023-04-10T15:15:38.674Z,16.76
2023-04-10T15:20:44.473Z,16.72
2023-04-10T15:25:50.190Z,16.73
2023-04-10T15:30:57.213Z,16.74
2023-04-10T15:36:03.561Z,16.78
2023-04-10T15:41:14.532Z,17.13
2023-04-10T15:46:20.375Z,17.83
2023-04-10T15:51:27.456Z,18.46
2023-04-10T15:56:33.985Z,19.00
2023-04-10T16:01:39.730Z,19.17
2023-04-10T16:06:45.686Z,18.29
2023-04-10T16:11:52.304Z,17.73
2023-04-10T16:16:58.153Z,17.36
2023-04-10T16:22:03.979Z,17.03
2023-04-10T16:27:09.731Z,16.77
2023-04-10T16:32:15.587Z,16.52
2023-04-10T16:37:21.386Z,16.30
2023-04-10T16:42:27.175Z,16.08
2023-04-10T16:47:33.107Z,15.89
2023-04-10T16:52:38.769Z,15.67
2023-04-10T16:57:44.943Z,15.53
2023-04-10T17:02:50.626Z,15.38
2023-04-10T17:07:57.374Z,15.29
2023-04-10T17:13:03.096Z,15.31
2023-04-10T17:18:09.116Z,15.18
2023-04-10T17:23:15.048Z,15.00
2023-04-10T17:28:21.019Z,14.83
2023-04-10T17:33:26.784Z,14.60
2023-04-10T17:38:32.605Z,14.37
2023-04-10T17:43:38.233Z,14.21
2023-04-10T17:48:44.172Z,14.09
2023-04-10T17:53:50.431Z,13.96
2023-04-10T17:58:56.630Z,13.67
2023-04-10T18:04:03.556Z,13.40
2023-04-10T18:09:09.528Z,13.18
2023-04-10T18:14:15.688Z,13.04
2023-04-10T18:19:21.418Z,12.90
2023-04-10T18:24:27.698Z,12.83
2023-04-10T18:29:34.135Z,12.84
2023-04-10T18:34:40.187Z,12.84
2023-04-10T18:39:46.195Z,12.85
2023-04-10T18:44:52.183Z,12.86
2023-04-10T18:49:58.140Z,12.87
2023-04-10T18:55:04.162Z,12.86
2023-04-10T19:00:13.545Z,12.80
2023-04-10T19:05:19.596Z,12.62
2023-04-10T19:10:25.480Z,12.46
2023-04-10T19:15:31.107Z,12.32
2023-04-10T19:20:48.921Z,12.20
2023-04-10T19:25:59.294Z,12.08
2023-04-10T19:31:05.117Z,11.98
2023-04-10T19:36:11.492Z,11.91
2023-04-10T19:41:18.025Z,11.90
2023-04-10T19:46:24.047Z,11.87
2023-04-10T19:51:29.988Z,11.81
2023-04-10T19:56:37.346Z,11.74
2023-04-10T20:01:43.140Z,11.67
2023-04-10T20:06:48.907Z,11.59
2023-04-10T20:11:54.610Z,11.46
2023-04-10T20:17:00.886Z,11.40
2023-04-10T20:22:07.393Z,11.31
2023-04-10T20:27:14.523Z,11.17
2023-04-10T20:32:20.204Z,11.07
2023-04-10T20:37:26.109Z,10.98
2023-04-10T20:42:31.796Z,10.90
2023-04-10T20:47:37.516Z,10.84
2023-04-10T20:52:43.475Z,10.81
2023-04-10T20:57:49.116Z,10.70
2023-04-10T21:02:54.981Z,10.61
2023-04-10T21:08:00.864Z,10.51
2023-04-10T21:13:06.539Z,10.42
2023-04-10T21:18:12.393Z,10.31
2023-04-10T21:23:18.088Z,10.19
2023-04-10T21:28:23.861Z,10.05
2023-04-10T21:33:29.631Z,9.95
2023-04-10T21:38:35.501Z,9.84
2023-04-10T21:43:42.737Z,9.76
2023-04-10T21:48:48.359Z,9.68
2023-04-10T21:53:54.229Z,9.58
2023-04-10T21:59:00.045Z,9.48
2023-04-10T22:04:06.477Z,9.38
2023-04-10T22:09:12.438Z,9.34
2023-04-10T22:14:20.065Z,9.33
2023-04-10T22:19:27.191Z,9.28
2023-04-10T22:24:35.256Z,9.34
2023-04-10T22:29:43.502Z,9.31
2023-04-10T22:34:53.612Z,9.25
2023-04-10T22:40:00.188Z,9.14
2023-04-10T22:45:08.048Z,8.99
2023-04-10T22:50:14.632Z,8.83
2023-04-10T22:55:21.037Z,8.75
2023-04-10T23:00:27.636Z,8.67
2023-04-10T23:05:33.539Z,8.56
2023-04-10T23:10:39.395Z,8.34
2023-04-10T23:15:50.874Z,8.19
2023-04-10T23:20:56.531Z,8.20
2023-04-10T23:26:02.602Z,8.23
2023-04-10T23:31:09.434Z,8.19
2023-04-10T23:36:15.159Z,8.19
2023-04-10T23:41:21.888Z,8.19
2023-04-10T23:46:27.829Z,8.11
2023-04-10T23:51:33.581Z,8.08
2023-04-10T23:56:39.425Z,7.97
